Time;durP1;ratioP1;P1;durP2;ratioP2;P2;SDS_P1;SDS_P2;PMS_P1;PMS_P2;Temp;Humidity;BMP_temperature;BMP_pressure;BME280_temperature;BME280_humidity;BME280_pressure;Samples;Min_cycle;Max_cycle;Signal;HPM_P1;HPM_P2
2021/03/01 00:02:13;;;;;;;14.53;7.57;;;1.80;99.90;;;;;;4997866;28;20938;-79
2021/03/01 00:04:40;;;;;;;14.53;8.27;;;1.80;99.90;;;;;;5015669;28;20542;-79
2021/03/01 00:07:06;;;;;;;12.97;7.73;;;1.70;99.90;;;;;;5003004;28;20420;-79
2021/03/01 00:09:32;;;;;;;13.03;7.53;;;1.70;99.90;;;;;;5004652;28;20951;-79
2021/03/01 00:11:59;;;;;;;11.70;7.50;;;1.70;99.90;;;;;;5016544;28;20426;-79
2021/03/01 00:14:25;;;;;;;11.60;7.40;;;1.60;99.90;;;;;;4996114;28;20460;-78
2021/03/01 00:16:51;;;;;;;13.40;8.07;;;1.60;99.90;;;;;;4996785;28;20444;-78
2021/03/01 00:19:18;;;;;;;13.00;7.30;;;1.60;99.90;;;;;;4996557;28;20465;-78
2021/03/01 00:21:45;;;;;;;14.47;7.47;;;1.60;99.90;;;;;;4996365;28;20947;-79
2021/03/01 00:24:11;;;;;;;11.97;8.07;;;1.60;99.90;;;;;;4996129;28;20511;-79
2021/03/01 00:26:37;;;;;;;11.73;7.90;;;1.50;99.90;;;;;;4996131;28;20823;-79
2021/03/01 00:29:04;;;;;;;13.83;8.03;;;1.50;99.90;;;;;;4996032;28;20435;-78
2021/03/01 00:31:30;;;;;;;13.77;8.03;;;1.50;99.90;;;;;;4996022;28;20416;-79
2021/03/01 00:33:56;;;;;;;12.67;7.30;;;1.40;99.90;;;;;;5007542;28;20925;-79
2021/03/01 00:36:23;;;;;;;13.20;8.37;;;1.40;99.90;;;;;;4998163;28;20447;-78
2021/03/01 00:38:49;;;;;;;12.13;7.10;;;1.40;99.90;;;;;;5010287;28;20952;-79
2021/03/01 00:41:16;;;;;;;11.87;7.10;;;1.40;99.90;;;;;;5013566;28;20981;-78
2021/03/01 00:43:42;;;;;;;12.13;7.17;;;1.40;99.90;;;;;;4995937;28;20464;-78
2021/03/01 00:46:08;;;;;;;10.90;7.67;;;1.40;99.90;;;;;;5010225;28;20446;-78
2021/03/01 00:48:34;;;;;;;12.13;6.53;;;1.40;99.90;;;;;;5015872;28;20422;-78
2021/03/01 00:51:01;;;;;;;14.27;7.83;;;1.40;99.90;;;;;;5004032;28;20420;-78
2021/03/01 00:53:29;;;;;;;10.83;7.30;;;1.40;99.90;;;;;;4999376;28;20428;-78
2021/03/01 00:55:55;;;;;;;10.97;6.13;;;1.40;99.90;;;;;;5015614;28;20525;-79
2021/03/01 00:58:22;;;;;;;13.90;7.27;;;1.30;99.90;;;;;;5009565;28;20458;-78
2021/03/01 01:00:50;;;;;;;12.30;6.93;;;1.30;99.90;;;;;;4996076;28;20427;-79
2021/03/01 01:03:17;;;;;;;11.73;7.77;;;1.30;99.90;;;;;;5000365;28;20472;-79
2021/03/01 01:05:44;;;;;;;13.87;7.83;;;1.20;99.90;;;;;;5011029;28;20806;-79
2021/03/01 01:08:10;;;;;;;13.90;7.60;;;1.20;99.90;;;;;;4996907;28;20422;-79
2021/03/01 01:10:38;;;;;;;13.03;8.10;;;1.10;99.90;;;;;;4998082;28;20424;-79
2021/03/01 01:13:05;;;;;;;11.07;7.23;;;1.00;99.90;;;;;;5015423;28;20522;-79
2021/03/01 01:15:32;;;;;;;8.97;6.40;;;1.00;99.90;;;;;;5014158;28;20453;-79
2021/03/01 01:17:58;;;;;;;13.13;6.93;;;1.00;99.90;;;;;;5005028;28;20951;-79
2021/03/01 01:20:26;;;;;;;14.73;7.10;;;0.90;99.90;;;;;;5006642;28;20485;-79
2021/03/01 01:22:52;;;;;;;12.97;7.67;;;0.90;99.90;;;;;;4996439;28;20440;-79
2021/03/01 01:25:19;;;;;;;10.73;7.30;;;0.90;99.90;;;;;;4995409;28;20533;-79
2021/03/01 01:27:46;;;;;;;12.07;6.63;;;0.90;99.90;;;;;;5013411;28;20774;-79
2021/03/01 01:30:15;;;;;;;13.07;7.23;;;0.90;99.90;;;;;;5014832;28;20418;-79
2021/03/01 01:32:42;;;;;;;11.40;6.40;;;0.90;99.90;;;;;;4998276;28;20457;-79
2021/03/01 01:35:11;;;;;;;12.60;7.00;;;0.90;99.90;;;;;;5000071;28;20443;-79
2021/03/01 01:37:37;;;;;;;12.30;6.70;;;0.90;99.90;;;;;;5003869;28;20414;-79
2021/03/01 01:40:05;;;;;;;11.30;6.30;;;0.90;99.90;;;;;;5011909;28;20444;-79
2021/03/01 01:42:31;;;;;;;12.40;6.53;;;0.80;99.90;;;;;;4994978;28;21010;-79
2021/03/01 01:44:59;;;;;;;13.30;7.33;;;0.80;99.90;;;;;;4995357;28;20999;-79
2021/03/01 01:47:25;;;;;;;10.70;6.53;;;0.80;99.90;;;;;;4995083;28;20434;-79
2021/03/01 01:49:52;;;;;;;12.13;6.93;;;0.80;99.90;;;;;;5002452;28;20433;-79
2021/03/01 01:52:18;;;;;;;13.53;6.97;;;0.80;99.90;;;;;;5013005;28;20447;-79
2021/03/01 01:54:45;;;;;;;11.80;6.87;;;0.70;99.90;;;;;;5012879;28;20438;-79
2021/03/01 01:57:12;;;;;;;13.47;6.27;;;0.70;99.90;;;;;;5010619;28;20423;-79
2021/03/01 01:59:39;;;;;;;10.57;6.27;;;0.70;99.90;;;;;;5001970;28;20418;-79
2021/03/01 02:02:06;;;;;;;14.20;7.43;;;0.70;99.90;;;;;;5012119;28;20452;-79
2021/03/01 02:04:35;;;;;;;21.17;7.43;;;0.70;99.90;;;;;;4998016;28;20512;-79
2021/03/01 02:07:09;;;;;;;11.93;6.27;;;0.70;99.90;;;;;;5008143;28;20424;-79
2021/03/01 02:09:46;;;;;;;11.23;7.30;;;0.70;99.90;;;;;;4994806;28;20411;-79
2021/03/01 02:12:16;;;;;;;10.03;6.77;;;0.70;99.90;;;;;;4994693;28;20766;-79
2021/03/01 02:15:02;;;;;;;14.23;7.17;;;0.60;99.90;;;;;;4994577;28;20810;-81
2021/03/01 02:17:29;;;;;;;11.63;7.70;;;0.60;99.90;;;;;;5002593;28;20445;-79
2021/03/01 02:19:55;;;;;;;15.60;7.20;;;0.60;99.90;;;;;;4999059;28;20453;-79
2021/03/01 02:22:23;;;;;;;13.77;7.70;;;0.60;99.90;;;;;;5013878;28;20941;-79
2021/03/01 02:24:52;;;;;;;13.53;7.00;;;0.60;99.90;;;;;;5010044;28;20472;-79
2021/03/01 02:27:23;;;;;;;16.00;8.40;;;0.60;99.90;;;;;;5001606;28;20437;-79
2021/03/01 02:29:55;;;;;;;16.80;7.60;;;0.60;99.90;;;;;;5010545;28;20437;-79
2021/03/01 02:32:21;;;;;;;10.60;7.90;;;0.60;99.90;;;;;;4994375;28;20783;-79
2021/03/01 02:34:48;;;;;;;11.97;6.23;;;0.70;99.90;;;;;;4995156;28;20468;-79
2021/03/01 02:37:19;;;;;;;11.90;6.63;;;0.60;99.90;;;;;;5000766;28;20449;-79
2021/03/01 02:39:48;;;;;;;14.30;7.10;;;0.60;99.90;;;;;;5005413;28;20462;-79
2021/03/01 02:42:18;;;;;;;11.60;7.07;;;0.60;99.90;;;;;;4994249;28;20799;-79
2021/03/01 02:44:45;;;;;;;15.13;8.17;;;0.60;99.90;;;;;;5001547;28;20491;-79
2021/03/01 02:47:12;;;;;;;17.50;7.10;;;0.60;99.90;;;;;;5003649;28;20502;-79
2021/03/01 02:49:43;;;;;;;12.53;7.30;;;0.50;99.90;;;;;;5006630;28;20422;-79
2021/03/01 02:52:10;;;;;;;11.47;7.07;;;0.50;99.90;;;;;;4995084;28;20446;-79
2021/03/01 02:54:39;;;;;;;12.33;6.77;;;0.60;99.90;;;;;;4994201;28;20464;-79
2021/03/01 02:57:07;;;;;;;13.53;6.90;;;0.60;99.90;;;;;;5006253;28;20436;-79
2021/03/01 02:59:36;;;;;;;12.27;7.80;;;0.60;99.90;;;;;;5001808;28;20443;-79
2021/03/01 03:02:03;;;;;;;14.70;8.43;;;0.60;99.90;;;;;;5013006;28;20939;-79
2021/03/01 03:04:30;;;;;;;12.23;7.40;;;0.60;99.90;;;;;;5005986;28;20469;-79
2021/03/01 03:06:58;;;;;;;17.60;9.33;;;0.60;99.90;;;;;;5006342;28;20544;-79
2021/03/01 03:09:25;;;;;;;20.10;8.10;;;0.60;99.90;;;;;;4993609;28;21022;-79
2021/03/01 03:11:54;;;;;;;12.37;7.30;;;0.60;99.90;;;;;;5000098;28;20422;-79
2021/03/01 03:14:24;;;;;;;14.30;8.43;;;0.60;99.90;;;;;;5013360;28;20453;-79
2021/03/01 03:16:53;;;;;;;19.07;8.17;;;0.60;99.90;;;;;;5009843;28;20414;-79
2021/03/01 03:19:20;;;;;;;10.43;7.40;;;0.50;99.90;;;;;;5013329;28;20469;-79
2021/03/01 03:21:46;;;;;;;12.10;7.90;;;0.50;99.90;;;;;;4995391;28;20838;-79
2021/03/01 03:24:13;;;;;;;11.17;7.63;;;0.50;99.90;;;;;;4993337;28;21011;-79
2021/03/01 03:26:39;;;;;;;14.80;7.33;;;0.40;99.90;;;;;;5004792;28;20435;-79
2021/03/01 03:29:06;;;;;;;12.20;7.30;;;0.40;99.90;;;;;;5005824;28;20448;-79
2021/03/01 03:31:33;;;;;;;13.13;7.63;;;0.40;99.90;;;;;;5008603;28;20830;-79
2021/03/01 03:34:00;;;;;;;12.93;7.33;;;0.40;99.90;;;;;;4994897;28;20930;-79
2021/03/01 03:36:29;;;;;;;12.00;6.73;;;0.30;99.90;;;;;;5013026;28;21069;-79
2021/03/01 03:38:58;;;;;;;10.83;7.07;;;0.30;99.90;;;;;;5012013;28;20425;-79
2021/03/01 03:41:27;;;;;;;12.57;6.70;;;0.30;99.90;;;;;;5012990;28;20410;-79
2021/03/01 03:43:54;;;;;;;11.40;6.50;;;0.30;99.90;;;;;;4993607;28;20770;-79
2021/03/01 03:46:24;;;;;;;11.53;6.77;;;0.30;99.90;;;;;;4993539;28;20446;-79
2021/03/01 03:48:52;;;;;;;12.10;6.67;;;0.30;99.90;;;;;;4994266;28;20427;-79
2021/03/01 03:51:22;;;;;;;13.63;7.30;;;0.30;99.90;;;;;;4993537;28;20434;-79
2021/03/01 03:53:50;;;;;;;10.73;5.93;;;0.30;99.90;;;;;;4993331;28;20457;-79
2021/03/01 03:56:22;;;;;;;10.60;6.23;;;0.40;99.90;;;;;;4993126;28;20443;-79
2021/03/01 03:58:52;;;;;;;15.13;7.60;;;0.40;99.90;;;;;;4993543;28;20414;-79
2021/03/01 04:01:23;;;;;;;13.37;6.83;;;0.40;99.90;;;;;;4993448;28;20492;-79
2021/03/01 04:03:51;;;;;;;8.93;6.23;;;0.30;99.90;;;;;;4993239;28;20400;-79
2021/03/01 04:06:21;;;;;;;8.50;5.67;;;0.40;99.90;;;;;;4993098;28;20468;-79
2021/03/01 04:08:50;;;;;;;13.57;7.43;;;0.40;99.90;;;;;;4993608;28;20440;-79
2021/03/01 04:11:20;;;;;;;11.60;6.37;;;0.40;99.90;;;;;;5000982;28;20916;-79
2021/03/01 04:13:47;;;;;;;11.63;6.90;;;0.30;99.90;;;;;;4997121;28;20472;-79
2021/03/01 04:16:15;;;;;;;11.80;7.10;;;0.30;99.90;;;;;;5003247;28;20446;-79
2021/03/01 04:18:45;;;;;;;14.13;6.63;;;0.20;99.90;;;;;;5016151;28;20444;-79
2021/03/01 04:21:12;;;;;;;14.73;6.93;;;0.20;99.90;;;;;;5015728;28;20911;-79
2021/03/01 04:23:43;;;;;;;10.47;6.30;;;0.30;99.90;;;;;;5010516;28;20451;-79
2021/03/01 04:26:09;;;;;;;11.87;7.20;;;0.20;99.90;;;;;;5014264;28;20486;-78
2021/03/01 04:28:36;;;;;;;10.70;6.53;;;0.20;99.90;;;;;;5015326;28;20452;-77
2021/03/01 04:31:06;;;;;;;11.20;6.47;;;0.20;99.90;;;;;;5010901;28;20427;-78
2021/03/01 04:33:34;;;;;;;13.27;7.10;;;0.10;99.90;;;;;;4996597;28;20452;-78
2021/03/01 04:36:01;;;;;;;12.13;7.27;;;0.10;99.90;;;;;;5003208;28;20483;-78
2021/03/01 04:38:27;;;;;;;15.43;6.90;;;0.20;99.90;;;;;;5002621;28;20460;-78
2021/03/01 04:40:55;;;;;;;15.20;6.70;;;0.20;99.90;;;;;;5002490;28;20430;-78
2021/03/01 04:43:23;;;;;;;15.27;7.10;;;0.20;99.90;;;;;;5015442;28;20440;-78
2021/03/01 04:45:51;;;;;;;15.57;7.20;;;0.20;99.90;;;;;;5010533;28;20496;-79
2021/03/01 04:48:18;;;;;;;14.43;7.47;;;0.20;99.90;;;;;;5007411;28;20926;-79
2021/03/01 04:50:48;;;;;;;12.63;6.87;;;0.20;99.90;;;;;;5013763;28;20860;-78
2021/03/01 04:53:15;;;;;;;11.80;6.57;;;0.10;99.90;;;;;;5015170;28;20798;-78
2021/03/01 04:55:42;;;;;;;14.83;7.27;;;0.10;99.90;;;;;;5006421;28;20865;-78
2021/03/01 04:58:10;;;;;;;11.73;7.10;;;0.10;99.90;;;;;;4996150;28;20427;-78
2021/03/01 05:00:37;;;;;;;11.20;6.37;;;0.10;99.90;;;;;;4999640;28;20448;-78
2021/03/01 05:03:04;;;;;;;15.37;6.93;;;0.10;99.90;;;;;;5011805;28;20853;-78
2021/03/01 05:05:31;;;;;;;13.50;7.20;;;0.00;99.90;;;;;;4995838;28;20496;-78
2021/03/01 05:07:58;;;;;;;10.63;7.20;;;0.10;99.90;;;;;;5005650;28;20448;-78
2021/03/01 05:10:26;;;;;;;12.10;6.17;;;0.00;99.90;;;;;;5011856;28;20537;-78
2021/03/01 05:12:52;;;;;;;12.60;7.10;;;0.10;99.90;;;;;;5011123;28;20460;-78
2021/03/01 05:15:20;;;;;;;11.03;6.50;;;0.00;99.90;;;;;;4995685;28;20447;-78
2021/03/01 05:17:46;;;;;;;21.37;11.30;;;0.00;99.90;;;;;;5009681;28;20447;-78
2021/03/01 05:20:13;;;;;;;12.13;7.80;;;-0.10;99.90;;;;;;5012098;28;20519;-78
2021/03/01 05:22:40;;;;;;;13.37;7.23;;;-0.10;99.90;;;;;;5002866;28;20463;-78
2021/03/01 05:25:07;;;;;;;12.63;7.20;;;-0.20;99.90;;;;;;4995363;28;20491;-78
2021/03/01 05:27:34;;;;;;;13.10;7.30;;;-0.20;99.90;;;;;;5001036;28;20427;-78
2021/03/01 05:30:03;;;;;;;12.60;8.30;;;-0.20;99.90;;;;;;5008668;28;20418;-77
2021/03/01 05:32:30;;;;;;;11.37;6.97;;;-0.20;99.90;;;;;;5012751;28;20427;-78
2021/03/01 05:34:56;;;;;;;14.93;8.27;;;-0.20;99.90;;;;;;5014742;28;20521;-78
2021/03/01 05:37:23;;;;;;;15.90;7.30;;;-0.20;99.90;;;;;;4993146;28;20930;-78
2021/03/01 05:39:49;;;;;;;12.50;8.00;;;-0.20;99.90;;;;;;4976688;28;20423;-78
2021/03/01 05:42:17;;;;;;;12.03;6.70;;;-0.20;99.90;;;;;;4975833;28;20426;-78
2021/03/01 05:44:44;;;;;;;14.00;7.67;;;-0.20;99.90;;;;;;4987830;28;20462;-78
2021/03/01 05:47:11;;;;;;;11.13;7.57;;;-0.30;99.90;;;;;;4988206;28;20424;-78
2021/03/01 05:49:40;;;;;;;13.00;7.63;;;-0.20;99.90;;;;;;4981002;28;20424;-78
2021/03/01 05:52:07;;;;;;;13.87;7.70;;;-0.30;99.90;;;;;;4981105;28;20486;-78
2021/03/01 05:54:35;;;;;;;14.63;7.13;;;-0.30;99.90;;;;;;4979988;28;20464;-79
2021/03/01 05:57:04;;;;;;;13.90;7.53;;;-0.30;99.90;;;;;;4988111;28;20507;-79
2021/03/01 05:59:30;;;;;;;14.00;7.67;;;-0.30;99.90;;;;;;4979700;28;20458;-79
2021/03/01 06:01:57;;;;;;;13.00;7.80;;;-0.30;99.90;;;;;;4975116;28;20432;-79
2021/03/01 06:04:23;;;;;;;12.03;7.57;;;-0.30;99.90;;;;;;4974522;28;20959;-79
2021/03/01 06:06:51;;;;;;;12.37;7.00;;;-0.20;99.90;;;;;;4975904;28;20815;-79
2021/03/01 06:09:17;;;;;;;12.57;7.30;;;-0.20;99.90;;;;;;4975335;28;20442;-79
2021/03/01 06:11:43;;;;;;;15.17;8.07;;;-0.20;99.90;;;;;;4975330;28;20453;-79
2021/03/01 06:14:09;;;;;;;14.20;8.07;;;-0.20;99.90;;;;;;4975124;28;21010;-79
2021/03/01 06:16:56;;;;;;;16.53;8.57;;;-0.10;99.90;;;;;;4974959;28;20489;-79
2021/03/01 06:19:46;;;;;;;14.17;6.70;;;0.00;99.90;;;;;;4974832;28;20423;-79
2021/03/01 06:22:14;;;;;;;13.53;7.43;;;0.00;99.90;;;;;;4977813;28;20420;-79
2021/03/01 06:24:41;;;;;;;13.40;6.30;;;0.00;99.90;;;;;;4974623;28;20864;-79
2021/03/01 06:27:09;;;;;;;16.10;8.10;;;0.00;99.90;;;;;;4986043;28;20515;-79
2021/03/01 06:29:57;;;;;;;13.80;7.60;;;0.10;99.90;;;;;;4992009;28;20460;-79
2021/03/01 06:32:23;;;;;;;12.53;6.50;;;0.10;99.90;;;;;;4988768;28;20427;-79
2021/03/01 06:34:49;;;;;;;16.77;7.87;;;0.10;99.90;;;;;;4990296;28;20444;-79
2021/03/01 06:37:17;;;;;;;14.93;6.83;;;0.10;99.90;;;;;;4992931;28;20454;-79
2021/03/01 06:39:45;;;;;;;15.47;7.67;;;0.10;99.90;;;;;;5000274;28;20867;-79
2021/03/01 06:42:23;;;;;;;15.30;7.70;;;0.10;99.90;;;;;;5000394;28;20423;-79
2021/03/01 06:45:13;;;;;;;11.10;7.43;;;0.10;99.90;;;;;;5000933;28;20474;-79
2021/03/01 06:47:45;;;;;;;11.07;8.20;;;0.10;99.90;;;;;;5005982;28;20438;-79
2021/03/01 06:50:31;;;;;;;11.17;7.40;;;0.20;99.90;;;;;;4994052;28;20510;-79
2021/03/01 06:53:02;;;;;;;12.83;7.53;;;0.20;99.90;;;;;;4993763;28;20430;-79
2021/03/01 06:55:29;;;;;;;15.33;9.43;;;0.20;99.90;;;;;;4993739;28;20451;-79
2021/03/01 06:57:56;;;;;;;19.97;10.60;;;0.20;99.90;;;;;;4993220;28;20427;-79
2021/03/01 07:00:27;;;;;;;12.87;9.40;;;0.20;99.90;;;;;;4993735;28;20981;-79
2021/03/01 07:02:54;;;;;;;14.83;8.93;;;0.30;99.90;;;;;;4993162;28;21017;-79
2021/03/01 07:05:21;;;;;;;15.73;8.17;;;0.30;99.90;;;;;;4993536;28;21014;-79
2021/03/01 07:07:47;;;;;;;16.60;9.03;;;0.30;99.90;;;;;;4993500;28;20452;-80
2021/03/01 07:10:14;;;;;;;16.63;8.40;;;0.40;99.90;;;;;;4993418;28;20448;-79
2021/03/01 07:12:42;;;;;;;21.70;8.90;;;0.40;99.90;;;;;;4993617;28;20419;-79
2021/03/01 07:15:11;;;;;;;15.20;8.80;;;0.50;99.90;;;;;;4993456;28;20476;-79
2021/03/01 07:17:39;;;;;;;16.07;8.50;;;0.50;99.90;;;;;;4993149;28;20419;-79
2021/03/01 07:20:08;;;;;;;17.90;8.40;;;0.60;99.90;;;;;;4997626;28;20440;-79
2021/03/01 07:22:37;;;;;;;14.33;8.60;;;0.60;99.90;;;;;;5003911;28;20476;-79
2021/03/01 07:25:05;;;;;;;12.93;8.50;;;0.70;99.90;;;;;;5013276;28;20483;-79
2021/03/01 07:27:37;;;;;;;16.60;9.40;;;0.70;99.90;;;;;;4995961;28;20445;-79
2021/03/01 07:30:06;;;;;;;15.20;9.07;;;0.80;99.90;;;;;;4994007;28;20429;-79
2021/03/01 07:32:32;;;;;;;15.20;9.57;;;0.80;99.90;;;;;;4995407;28;20431;-79
2021/03/01 07:35:00;;;;;;;14.80;9.13;;;0.90;99.90;;;;;;5008220;28;20534;-79
2021/03/01 07:37:27;;;;;;;15.53;8.60;;;0.90;99.90;;;;;;5008222;28;20443;-79
2021/03/01 07:39:54;;;;;;;12.17;8.10;;;1.00;99.90;;;;;;5011538;28;20464;-79
2021/03/01 07:42:21;;;;;;;17.40;9.63;;;1.00;99.90;;;;;;5004028;28;20941;-79
2021/03/01 07:44:53;;;;;;;16.43;8.60;;;1.10;99.90;;;;;;5009917;28;20502;-79
2021/03/01 07:47:26;;;;;;;16.17;9.10;;;1.10;99.90;;;;;;4999027;28;20437;-78
2021/03/01 07:49:52;;;;;;;19.03;9.07;;;1.20;99.90;;;;;;5014283;28;20407;-78
2021/03/01 07:52:35;;;;;;;14.53;8.40;;;1.30;99.90;;;;;;5011225;28;20427;-78
2021/03/01 07:55:05;;;;;;;16.47;9.70;;;1.30;99.90;;;;;;4996700;28;20974;-79
2021/03/01 07:57:32;;;;;;;16.33;9.00;;;1.40;99.90;;;;;;4996979;28;20430;-79
2021/03/01 08:00:26;;;;;;;13.93;9.00;;;1.50;99.90;;;;;;4996708;28;20415;-79
2021/03/01 08:02:53;;;;;;;17.47;10.20;;;1.50;99.90;;;;;;4996058;28;20445;-78
2021/03/01 08:05:25;;;;;;;14.00;9.00;;;1.60;99.90;;;;;;4996918;28;20496;-78
2021/03/01 08:07:52;;;;;;;17.30;10.23;;;1.70;99.90;;;;;;4996831;28;20425;-78
2021/03/01 08:10:20;;;;;;;16.83;10.27;;;1.70;99.90;;;;;;4997091;28;20436;-78
2021/03/01 08:13:01;;;;;;;19.17;10.10;;;1.80;99.90;;;;;;4996438;28;20944;-78
2021/03/01 08:15:39;;;;;;;15.53;9.90;;;1.90;99.90;;;;;;4997086;28;20443;-79
2021/03/01 08:18:06;;;;;;;19.87;10.60;;;2.00;99.90;;;;;;4996861;28;20404;-78
2021/03/01 08:20:35;;;;;;;16.00;9.80;;;2.20;99.90;;;;;;4996837;28;20441;-78
2021/03/01 08:23:21;;;;;;;19.20;9.93;;;2.30;99.90;;;;;;4996787;28;20508;-78
2021/03/01 08:25:58;;;;;;;13.93;7.97;;;2.40;99.90;;;;;;5015433;28;20840;-78
2021/03/01 08:28:44;;;;;;;16.43;9.30;;;2.60;99.90;;;;;;5014393;28;20438;-78
2021/03/01 08:31:32;;;;;;;13.67;8.60;;;2.80;99.90;;;;;;4995973;28;20504;-78
2021/03/01 08:34:27;;;;;;;13.03;8.93;;;3.00;99.90;;;;;;4996258;28;20483;-78
2021/03/01 08:36:54;;;;;;;15.23;9.00;;;3.10;99.90;;;;;;4974905;28;20500;-78
2021/03/01 08:39:58;;;;;;;19.47;9.40;;;3.10;99.90;;;;;;4996459;28;20452;-78
2021/03/01 08:42:44;;;;;;;15.80;8.33;;;3.30;99.90;;;;;;4996860;28;20877;-78
2021/03/01 08:45:11;;;;;;;12.63;6.90;;;3.50;99.90;;;;;;4996192;28;20498;-78
2021/03/01 08:47:47;;;;;;;12.80;8.17;;;3.70;99.90;;;;;;4995692;28;20500;-79
2021/03/01 08:50:14;;;;;;;15.53;8.77;;;4.00;99.90;;;;;;4996308;28;20428;-79
2021/03/01 08:52:47;;;;;;;12.73;7.63;;;4.30;99.90;;;;;;4995700;28;20858;-79
2021/03/01 08:55:14;;;;;;;11.73;7.63;;;4.60;99.90;;;;;;4995830;28;20476;-78
2021/03/01 08:58:01;;;;;;;10.13;7.33;;;4.80;99.90;;;;;;4994591;28;20507;-79
2021/03/01 09:00:29;;;;;;;13.50;7.20;;;5.10;99.90;;;;;;4996126;28;20463;-79
2021/03/01 09:03:21;;;;;;;13.07;8.00;;;5.50;99.90;;;;;;4998465;28;20458;-79
2021/03/01 09:05:49;;;;;;;13.03;7.07;;;6.10;99.90;;;;;;4995673;28;20484;-80
2021/03/01 09:08:24;;;;;;;7.63;6.00;;;7.00;99.90;;;;;;5003922;28;20538;-80
2021/03/01 09:10:50;;;;;;;11.77;5.90;;;8.20;99.40;;;;;;5001828;28;20511;-81
2021/03/01 09:13:18;;;;;;;7.77;5.27;;;9.60;94.50;;;;;;4996005;28;20452;-81
2021/03/01 09:15:45;;;;;;;9.90;5.93;;;11.10;85.80;;;;;;4995493;28;20834;-81
2021/03/01 09:18:14;;;;;;;5.77;5.17;;;12.50;74.40;;;;;;4995726;28;20456;-81
2021/03/01 09:20:45;;;;;;;7.43;5.40;;;13.70;62.80;;;;;;4995491;28;20421;-81
2021/03/01 09:23:11;;;;;;;8.57;5.30;;;14.70;56.80;;;;;;4996339;28;20449;-81
2021/03/01 09:25:38;;;;;;;9.80;5.70;;;15.20;52.60;;;;;;4995159;28;20988;-80
2021/03/01 09:28:06;;;;;;;8.33;5.10;;;15.30;53.00;;;;;;5000166;28;20510;-80
2021/03/01 09:30:33;;;;;;;5.67;4.60;;;16.30;49.90;;;;;;5007787;28;20449;-80
2021/03/01 09:33:01;;;;;;;5.93;5.33;;;16.40;46.80;;;;;;4995499;28;20528;-80
2021/03/01 09:35:30;;;;;;;6.63;5.00;;;17.20;46.90;;;;;;4995196;28;20492;-80
2021/03/01 09:37:57;;;;;;;5.97;5.20;;;17.90;46.00;;;;;;4995486;28;20445;-80
2021/03/01 09:40:25;;;;;;;6.20;5.30;;;18.80;43.90;;;;;;4995376;28;20450;-80
2021/03/01 09:42:52;;;;;;;5.93;5.30;;;19.90;42.80;;;;;;4995320;28;20459;-80
2021/03/01 09:45:20;;;;;;;7.10;5.10;;;20.60;40.30;;;;;;4995079;28;20503;-80
2021/03/01 09:47:49;;;;;;;6.40;5.17;;;20.50;39.50;;;;;;4995096;28;20451;-80
2021/03/01 09:50:16;;;;;;;7.27;6.07;;;19.90;38.10;;;;;;4994888;28;20952;-80
2021/03/01 09:52:46;;;;;;;6.77;5.80;;;20.00;38.40;;;;;;4995113;28;20449;-79
2021/03/01 09:55:14;;;;;;;6.70;5.27;;;19.80;38.10;;;;;;4994734;28;20472;-79
2021/03/01 09:57:40;;;;;;;10.97;6.00;;;18.80;40.00;;;;;;4995010;28;20464;-81
2021/03/01 10:00:25;;;;;;;6.17;5.50;;;18.90;40.50;;;;;;4994971;28;20452;-81
2021/03/01 10:02:59;;;;;;;6.40;5.20;;;19.20;39.50;;;;;;4994949;28;20527;-81
2021/03/01 10:05:26;;;;;;;7.47;5.43;;;19.00;39.10;;;;;;4994828;28;20890;-81
2021/03/01 10:07:57;;;;;;;7.60;5.73;;;18.90;40.10;;;;;;4994397;28;20456;-81
2021/03/01 10:10:32;;;;;;;5.87;5.07;;;18.70;39.80;;;;;;4994772;28;20543;-81
2021/03/01 10:12:59;;;;;;;7.00;5.63;;;18.20;38.60;;;;;;4994743;28;20447;-80
2021/03/01 10:15:25;;;;;;;5.90;5.30;;;17.80;39.30;;;;;;4996804;28;20477;-81
2021/03/01 10:18:03;;;;;;;6.57;5.20;;;17.40;41.60;;;;;;4994294;28;20512;-82
2021/03/01 10:20:30;;;;;;;7.93;6.17;;;16.60;40.10;;;;;;4994182;28;20815;-81
2021/03/01 10:23:01;;;;;;;7.50;5.30;;;16.20;42.50;;;;;;4994177;28;21035;-81
2021/03/01 10:25:36;;;;;;;7.67;6.53;;;16.00;42.10;;;;;;4994351;28;20492;-81
2021/03/01 10:28:05;;;;;;;6.97;6.17;;;16.00;42.30;;;;;;4994283;28;20416;-80
2021/03/01 10:30:31;;;;;;;5.80;5.30;;;16.60;42.10;;;;;;4994010;28;20452;-81
2021/03/01 10:33:08;;;;;;;6.80;6.20;;;17.50;41.40;;;;;;4994367;28;20481;-80
2021/03/01 10:35:35;;;;;;;7.13;5.43;;;18.80;40.20;;;;;;4994103;28;20479;-84
2021/03/01 10:38:07;;;;;;;7.13;5.50;;;19.80;36.70;;;;;;4994298;28;20433;-82
2021/03/01 10:40:37;;;;;;;8.67;6.40;;;19.70;36.40;;;;;;4994707;28;20452;-85
2021/03/01 10:43:10;;;;;;;5.60;4.90;;;20.00;36.00;;;;;;4993818;28;20512;-81
2021/03/01 10:45:40;;;;;;;7.10;5.53;;;21.20;34.80;;;;;;4993617;28;20515;-80
2021/03/01 10:48:08;;;;;;;8.50;6.10;;;21.30;33.70;;;;;;4994157;28;20455;-80
2021/03/01 10:50:34;;;;;;;5.90;5.30;;;21.30;33.90;;;;;;4993684;28;20448;-80
2021/03/01 10:53:00;;;;;;;7.43;5.53;;;22.00;32.50;;;;;;4993825;28;20818;-80
2021/03/01 10:55:27;;;;;;;6.13;5.43;;;22.60;31.30;;;;;;4993890;28;21018;-80
2021/03/01 10:57:54;;;;;;;6.97;5.67;;;23.10;30.40;;;;;;5000059;28;20455;-80
2021/03/01 11:00:21;;;;;;;6.03;5.50;;;23.30;31.40;;;;;;5000694;28;20919;-79
2021/03/01 11:02:47;;;;;;;7.37;5.57;;;23.70;30.10;;;;;;5010138;28;20444;-80
2021/03/01 11:05:14;;;;;;;6.17;5.57;;;23.10;29.40;;;;;;5001313;28;20478;-80
2021/03/01 11:07:40;;;;;;;5.00;4.60;;;21.80;30.00;;;;;;5013519;28;20436;-79
2021/03/01 11:10:07;;;;;;;4.77;4.30;;;20.10;31.60;;;;;;5002762;28;20921;-80
2021/03/01 11:12:35;;;;;;;5.90;5.27;;;19.20;32.60;;;;;;4993959;28;20909;-80
2021/03/01 11:15:02;;;;;;;7.23;5.07;;;17.70;34.40;;;;;;4993586;28;20515;-81
2021/03/01 11:17:28;;;;;;;5.07;4.23;;;16.70;35.40;;;;;;4993924;28;20428;-82
2021/03/01 11:19:55;;;;;;;5.83;4.47;;;15.70;36.90;;;;;;4995098;28;20440;-82
2021/03/01 11:22:21;;;;;;;6.13;5.00;;;15.10;37.60;;;;;;5008683;28;20470;-81
2021/03/01 11:24:48;;;;;;;6.20;4.90;;;14.60;38.30;;;;;;5017102;28;21036;-82
2021/03/01 11:27:14;;;;;;;6.00;4.50;;;13.90;39.30;;;;;;5017536;28;20427;-82
2021/03/01 11:29:41;;;;;;;5.23;4.70;;;13.40;40.40;;;;;;5005946;28;20440;-81
2021/03/01 11:32:08;;;;;;;4.80;4.13;;;13.20;41.50;;;;;;4998238;28;20448;-79
2021/03/01 11:34:34;;;;;;;5.00;4.10;;;12.70;42.80;;;;;;5006576;28;20471;-79
2021/03/01 11:37:00;;;;;;;5.40;4.50;;;12.70;41.70;;;;;;5017090;28;20479;-79
2021/03/01 11:39:26;;;;;;;6.63;4.40;;;12.50;41.70;;;;;;5015656;28;20514;-79
2021/03/01 11:41:53;;;;;;;3.87;3.50;;;12.60;43.20;;;;;;5004221;28;20456;-79
2021/03/01 11:44:19;;;;;;;4.80;4.30;;;12.60;41.70;;;;;;5017099;28;20439;-79
2021/03/01 11:46:45;;;;;;;6.80;4.90;;;12.60;41.00;;;;;;5010508;28;20464;-84
2021/03/01 11:49:12;;;;;;;5.10;4.63;;;12.30;41.80;;;;;;5011201;28;20931;-80
2021/03/01 11:51:38;;;;;;;4.57;3.67;;;12.40;42.30;;;;;;5009178;28;20796;-81
2021/03/01 11:54:05;;;;;;;7.63;4.30;;;12.40;41.30;;;;;;4996962;28;20983;-81
2021/03/01 11:56:31;;;;;;;5.10;4.10;;;12.30;42.20;;;;;;4997297;28;20433;-81
2021/03/01 11:59:03;;;;;;;5.67;3.80;;;12.20;40.90;;;;;;4997094;28;20412;-80
2021/03/01 12:01:29;;;;;;;4.60;3.20;;;12.20;41.80;;;;;;4997301;28;20452;-82
2021/03/01 12:03:55;;;;;;;3.30;3.00;;;12.30;40.40;;;;;;4997135;28;20430;-82
2021/03/01 12:06:22;;;;;;;4.37;3.10;;;12.20;40.10;;;;;;5009892;28;20561;-81
2021/03/01 12:08:49;;;;;;;3.40;3.07;;;12.10;41.30;;;;;;5016679;28;20494;-81
2021/03/01 12:11:15;;;;;;;3.50;3.20;;;12.00;40.80;;;;;;5016669;28;20443;-81
2021/03/01 12:13:41;;;;;;;5.00;3.47;;;12.00;40.80;;;;;;5016318;28;20919;-81
2021/03/01 12:16:07;;;;;;;4.00;2.83;;;11.70;41.50;;;;;;5016553;28;20478;-81
2021/03/01 12:18:34;;;;;;;3.40;3.10;;;11.90;41.50;;;;;;5016571;28;20455;-82
2021/03/01 12:21:00;;;;;;;5.43;3.40;;;12.00;40.70;;;;;;5016503;28;20440;-82
2021/03/01 12:23:27;;;;;;;4.20;3.20;;;11.90;41.30;;;;;;5016489;28;20444;-82
2021/03/01 12:25:53;;;;;;;5.87;3.77;;;11.90;41.50;;;;;;5016250;28;20495;-83
2021/03/01 12:28:20;;;;;;;4.80;3.47;;;11.90;41.90;;;;;;5017185;28;20506;-83
2021/03/01 12:30:46;;;;;;;3.97;3.20;;;11.80;41.50;;;;;;5016102;28;20472;-83
2021/03/01 12:33:12;;;;;;;3.00;2.80;;;11.90;41.20;;;;;;5015924;28;20919;-82
2021/03/01 12:35:39;;;;;;;3.70;3.00;;;11.90;41.70;;;;;;5015988;28;20732;-82
2021/03/01 12:38:05;;;;;;;5.10;3.20;;;12.00;42.00;;;;;;5016145;28;20454;-82
2021/03/01 12:40:32;;;;;;;3.27;2.77;;;11.90;42.00;;;;;;5016084;28;20436;-83
2021/03/01 12:42:59;;;;;;;3.03;2.53;;;12.00;41.60;;;;;;5002470;28;20432;-83
2021/03/01 12:45:25;;;;;;;4.43;3.13;;;11.90;41.20;;;;;;4996317;28;20489;-83
2021/03/01 12:47:52;;;;;;;3.40;3.00;;;11.90;40.50;;;;;;4996159;28;20476;-86
2021/03/01 12:50:18;;;;;;;6.23;3.63;;;12.00;40.90;;;;;;4996596;28;20484;-82
2021/03/01 12:52:44;;;;;;;2.83;2.63;;;11.90;41.00;;;;;;4996270;28;20817;-83
2021/03/01 12:55:12;;;;;;;7.77;3.87;;;12.00;40.10;;;;;;4997982;28;20539;-82